Time;durP1;ratioP1;P1;durP2;ratioP2;P2;SDS_P1;SDS_P2;PMS_P1;PMS_P2;Temp;Humidity;BMP_temperature;BMP_pressure;BME280_temperature;BME280_humidity;BME280_pressure;Samples;Min_cycle;Max_cycle;Signal;HPM_P1;HPM_P2
2024/02/25 00:00:39;;;;;;;0.13;0.13;;;;;;;7.86;71.08;100015.06;5037093;28;20032;-78
2024/02/25 00:03:06;;;;;;;0.10;0.10;;;;;;;7.88;70.80;100016.75;5034951;28;20029;-78
2024/02/25 00:05:34;;;;;;;0.10;0.10;;;;;;;7.85;70.44;100013.31;5035828;28;20033;-79
2024/02/25 00:08:00;;;;;;;0.10;0.10;;;;;;;7.82;70.33;100018.66;5037241;28;20029;-78
2024/02/25 00:10:26;;;;;;;0.10;0.10;;;;;;;7.86;70.51;100015.06;5034853;28;20034;-78
2024/02/25 00:12:53;;;;;;;0.10;0.10;;;;;;;7.80;70.83;100015.19;5035212;28;20034;-78
2024/02/25 00:15:19;;;;;;;0.10;0.10;;;;;;;7.85;71.05;100008.03;5034181;28;20029;-79
2024/02/25 00:17:45;;;;;;;0.15;0.15;;;;;;;7.83;71.04;100004.59;5035386;28;20026;-78
2024/02/25 00:20:11;;;;;;;0.20;0.20;;;;;;;7.84;70.75;100008.94;5034828;28;20021;-78
2024/02/25 00:22:38;;;;;;;0.10;0.10;;;;;;;7.77;71.22;100006.44;5035138;28;20033;-79
2024/02/25 00:25:04;;;;;;;0.10;0.10;;;;;;;7.74;71.23;100003.88;5034153;28;20032;-78
2024/02/25 00:27:30;;;;;;;0.10;0.10;;;;;;;7.71;70.73;100009.22;5035271;28;20030;-79
2024/02/25 00:29:57;;;;;;;0.20;0.20;;;;;;;7.69;71.49;100008.38;5035444;28;20036;-79
2024/02/25 00:32:25;;;;;;;0.17;0.17;;;;;;;7.69;70.89;100003.13;5035141;28;20033;-79
2024/02/25 00:34:51;;;;;;;0.20;0.20;;;;;;;7.75;71.20;100010.91;5034876;28;20033;-79
2024/02/25 00:37:17;;;;;;;0.20;0.20;;;;;;;7.70;71.10;100009.25;5038356;28;20025;-79
2024/02/25 00:39:44;;;;;;;0.35;0.35;;;;;;;7.67;70.64;100015.44;5037708;28;20037;-79
2024/02/25 00:42:10;;;;;;;0.10;0.10;;;;;;;7.63;70.52;100016.44;5038884;28;20029;-79
2024/02/25 00:44:38;;;;;;;0.10;0.10;;;;;;;7.73;71.09;100017.97;5038293;28;20037;-79
2024/02/25 00:47:04;;;;;;;0.20;0.20;;;;;;;7.66;70.59;100023.41;5039000;28;20026;-79
2024/02/25 00:49:31;;;;;;;0.10;0.10;;;;;;;7.69;71.28;100016.31;5038430;28;20036;-78
2024/02/25 00:51:57;;;;;;;0.13;0.13;;;;;;;7.73;71.18;100025.88;5039822;28;20433;-78
2024/02/25 00:54:23;;;;;;;0.20;0.20;;;;;;;7.82;70.78;100023.94;5039601;28;20057;-80
2024/02/25 00:56:50;;;;;;;0.20;0.20;;;;;;;7.72;71.02;100028.53;5040358;28;20084;-79
2024/02/25 00:59:16;;;;;;;0.10;0.10;;;;;;;7.76;71.45;100027.56;5039858;28;20040;-79
2024/02/25 01:01:43;;;;;;;0.20;0.20;;;;;;;7.73;71.75;100025.88;5039745;28;20089;-79
2024/02/25 01:04:10;;;;;;;0.10;0.10;;;;;;;7.76;71.58;100031.09;5038854;28;20033;-79
2024/02/25 01:06:36;;;;;;;0.20;0.20;;;;;;;7.75;71.26;100021.44;5037985;28;20033;-79
2024/02/25 01:09:03;;;;;;;0.10;0.10;;;;;;;7.76;71.77;100023.19;5036208;28;20030;-79
2024/02/25 01:11:29;;;;;;;0.20;0.20;;;;;;;7.72;71.56;100021.50;5036191;28;20026;-79
2024/02/25 01:13:55;;;;;;;0.10;0.10;;;;;;;7.72;71.39;100024.13;5038702;28;20500;-80
2024/02/25 01:16:22;;;;;;;0.10;0.10;;;;;;;7.75;71.28;100024.06;5038290;28;20053;-80
2024/02/25 01:18:48;;;;;;;0.20;0.20;;;;;;;7.75;71.60;100017.91;5038036;28;20172;-78
2024/02/25 01:21:14;;;;;;;0.10;0.10;;;;;;;7.71;71.49;100022.41;5038784;28;20068;-79
2024/02/25 01:23:41;;;;;;;0.10;0.10;;;;;;;7.72;71.99;100018.84;5039116;28;20029;-79
2024/02/25 01:26:07;;;;;;;0.40;0.40;;;;;;;7.76;71.86;100017.91;5038561;28;20091;-79
2024/02/25 01:28:33;;;;;;;0.20;0.20;;;;;;;7.81;71.86;100011.66;5037576;28;20030;-79
2024/02/25 01:31:01;;;;;;;0.68;0.68;;;;;;;7.81;71.65;100016.94;5037700;28;20033;-79
2024/02/25 01:33:27;;;;;;;0.13;0.13;;;;;;;7.80;72.05;100020.47;5037278;28;20040;-78
2024/02/25 01:35:53;;;;;;;0.10;0.10;;;;;;;7.82;72.02;100014.25;5037141;28;20040;-79
2024/02/25 01:38:19;;;;;;;0.10;0.10;;;;;;;7.82;72.10;100008.97;5036972;28;20072;-78
2024/02/25 01:40:45;;;;;;;0.10;0.10;;;;;;;7.70;71.67;100015.41;5037253;28;20029;-78
2024/02/25 01:43:16;;;;;;;0.30;0.30;;;;;;;7.77;71.94;100016.97;5038007;28;20025;-78
2024/02/25 01:45:44;;;;;;;0.20;0.20;;;;;;;7.75;71.99;100010.00;5037221;28;20033;-79
2024/02/25 01:48:12;;;;;;;0.10;0.10;;;;;;;7.79;71.94;100003.78;5036537;28;20025;-78
2024/02/25 01:50:39;;;;;;;0.20;0.20;;;;;;;7.75;72.69;100010.00;5038396;28;20401;-78
2024/02/25 01:53:06;;;;;;;0.10;0.10;;;;;;;7.77;72.46;100006.44;5037704;28;20032;-77
2024/02/25 01:55:34;;;;;;;0.17;0.17;;;;;;;7.72;72.90;100003.03;5036680;28;20049;-77
2024/02/25 01:58:02;;;;;;;0.20;0.20;;;;;;;7.80;72.40;100002.88;5037372;28;20036;-78
2024/02/25 02:00:30;;;;;;;0.82;0.82;;;;;;;7.76;72.78;100001.19;5036842;28;20060;-78
2024/02/25 02:02:59;;;;;;;0.20;0.20;;;;;;;7.81;72.43;100009.03;5036633;28;20076;-78
2024/02/25 02:05:25;;;;;;;0.20;0.20;;;;;;;7.78;72.85;100007.31;5037279;28;20080;-77
2024/02/25 02:07:53;;;;;;;0.22;0.22;;;;;;;7.78;72.96;100007.31;5037675;28;20102;-77
2024/02/25 02:10:19;;;;;;;0.10;0.10;;;;;;;7.75;72.43;100007.38;5040338;28;20029;-77
2024/02/25 02:12:47;;;;;;;0.10;0.10;;;;;;;7.78;73.02;100008.19;5052425;28;20033;-77
2024/02/25 02:15:15;;;;;;;0.13;0.13;;;;;;;7.78;73.07;100008.19;5051583;28;20392;-77
2024/02/25 02:17:43;;;;;;;0.20;0.20;;;;;;;7.76;72.48;99999.44;5051551;28;20036;-78
2024/02/25 02:20:12;;;;;;;0.20;0.20;;;;;;;7.65;73.07;100005.84;5044627;28;20025;-78
2024/02/25 02:22:39;;;;;;;0.20;0.20;;;;;;;7.67;73.05;100010.19;5051613;28;20033;-77
2024/02/25 02:25:07;;;;;;;0.13;0.13;;;;;;;7.73;73.07;100006.56;5051334;28;20036;-78
2024/02/25 02:27:37;;;;;;;0.20;0.20;;;;;;;7.69;72.88;100003.13;5052257;28;20029;-77
2024/02/25 02:30:04;;;;;;;0.35;0.35;;;;;;;7.70;73.37;100004.84;5051391;28;20033;-77
2024/02/25 02:32:31;;;;;;;0.10;0.10;;;;;;;7.78;73.06;100005.53;5048392;28;20025;-79
2024/02/25 02:34:57;;;;;;;0.20;0.20;;;;;;;7.78;73.32;100008.19;5039477;28;20041;-78
2024/02/25 02:37:24;;;;;;;0.10;0.10;;;;;;;7.79;73.35;100003.78;5038947;28;20093;-78
2024/02/25 02:39:50;;;;;;;0.20;0.20;;;;;;;7.75;73.30;100008.25;5037938;28;20034;-78
2024/02/25 02:42:16;;;;;;;0.10;0.10;;;;;;;7.77;73.22;100009.06;5036756;28;20029;-78
2024/02/25 02:44:45;;;;;;;0.20;0.20;;;;;;;7.72;73.46;100003.03;5036920;28;20108;-78
2024/02/25 02:47:13;;;;;;;0.47;0.47;;;;;;;7.77;73.12;99995.03;5035894;28;20033;-78
2024/02/25 02:49:39;;;;;;;0.10;0.10;;;;;;;7.73;73.02;100009.19;5032724;28;20105;-78
2024/02/25 02:52:05;;;;;;;0.10;0.10;;;;;;;7.75;72.84;100002.97;5032044;28;20381;-79
2024/02/25 02:54:32;;;;;;;0.10;0.10;;;;;;;7.78;73.18;100002.03;5036046;28;20087;-78
2024/02/25 02:56:58;;;;;;;0.10;0.10;;;;;;;7.81;72.92;100006.38;5036392;28;20025;-79
2024/02/25 02:59:24;;;;;;;0.10;0.10;;;;;;;7.80;73.09;100008.16;5036833;28;20017;-78
2024/02/25 03:01:51;;;;;;;0.40;0.40;;;;;;;7.84;73.07;100007.19;5036639;28;20030;-78
2024/02/25 03:04:18;;;;;;;0.20;0.20;;;;;;;7.89;73.26;100007.09;5036967;28;20029;-78
2024/02/25 03:06:44;;;;;;;0.10;0.10;;;;;;;7.85;73.39;100002.75;5036081;28;20083;-78
2024/02/25 03:09:12;;;;;;;0.20;0.20;;;;;;;7.83;73.46;100004.59;5037069;28;20171;-78
2024/02/25 03:11:39;;;;;;;0.17;0.17;;;;;;;7.85;72.79;100003.66;5028262;28;20103;-78
2024/02/25 03:14:05;;;;;;;0.40;0.40;;;;;;;7.89;73.32;99999.19;5036779;28;20036;-79
2024/02/25 03:16:32;;;;;;;0.20;0.20;;;;;;;7.75;73.71;99999.47;5035648;28;20556;-78
2024/02/25 03:18:58;;;;;;;0.17;0.17;;;;;;;7.82;72.97;99995.78;5036208;28;20109;-78
2024/02/25 03:21:25;;;;;;;0.20;0.20;;;;;;;7.84;73.25;100001.03;5035521;28;20095;-78
2024/02/25 03:23:51;;;;;;;1.92;1.20;;;;;;;7.86;73.23;100000.13;5035529;28;20571;-78
2024/02/25 03:26:19;;;;;;;0.20;0.20;;;;;;;7.86;73.18;99999.22;5034330;28;20116;-78
2024/02/25 03:28:45;;;;;;;0.20;0.20;;;;;;;7.83;73.58;99994.91;5033035;28;20065;-78
2024/02/25 03:31:12;;;;;;;0.55;0.20;;;;;;;7.88;73.17;99997.44;5033429;28;20052;-78
2024/02/25 03:33:38;;;;;;;0.20;0.20;;;;;;;7.86;73.71;99993.97;5033684;28;20035;-78
2024/02/25 03:36:05;;;;;;;0.15;0.15;;;;;;;7.85;74.07;99997.50;5033947;28;20049;-78
2024/02/25 03:38:32;;;;;;;0.40;0.40;;;;;;;7.82;73.85;99997.56;5045097;28;20033;-78
2024/02/25 03:40:59;;;;;;;0.30;0.30;;;;;;;7.84;74.10;99999.28;5039432;28;20057;-78
2024/02/25 03:43:25;;;;;;;0.20;0.20;;;;;;;7.86;73.70;99996.59;5036275;28;20026;-78
2024/02/25 03:45:51;;;;;;;0.22;0.22;;;;;;;7.85;74.34;99997.50;5036174;28;20037;-78
2024/02/25 03:48:17;;;;;;;1.80;0.65;;;;;;;7.88;74.32;99998.28;5036463;28;20186;-78
2024/02/25 03:50:43;;;;;;;0.30;0.30;;;;;;;7.91;74.16;100002.63;5036758;28;20026;-79
2024/02/25 03:53:10;;;;;;;0.43;0.43;;;;;;;7.89;74.47;100000.03;5042451;28;20412;-78
2024/02/25 03:55:36;;;;;;;0.15;0.15;;;;;;;7.88;74.67;99997.44;5041424;28;20087;-78
2024/02/25 03:58:02;;;;;;;0.20;0.20;;;;;;;7.90;74.68;100006.16;5036817;28;20022;-79
2024/02/25 04:00:28;;;;;;;0.20;0.20;;;;;;;7.89;74.23;100004.44;5036494;28;20061;-79
2024/02/25 04:02:55;;;;;;;0.10;0.10;;;;;;;7.93;74.77;100003.47;5036378;28;20032;-79
2024/02/25 04:05:21;;;;;;;0.40;0.40;;;;;;;7.98;74.40;100001.59;5035668;28;20503;-79
2024/02/25 04:07:48;;;;;;;0.10;0.10;;;;;;;7.95;74.00;100006.94;5026665;28;20025;-79
2024/02/25 04:10:14;;;;;;;0.10;0.10;;;;;;;7.92;74.76;100001.72;5034788;28;20049;-78
2024/02/25 04:12:40;;;;;;;0.32;0.32;;;;;;;7.97;74.17;100005.13;5035793;28;20057;-78
2024/02/25 04:15:08;;;;;;;0.10;0.10;;;;;;;8.00;74.34;100012.09;5035564;28;20029;-79
2024/02/25 04:17:34;;;;;;;0.40;0.40;;;;;;;8.01;73.96;100014.72;5036515;28;20377;-79
2024/02/25 04:20:01;;;;;;;0.20;0.20;;;;;;;8.02;74.38;100016.44;5036344;28;20492;-79
2024/02/25 04:22:30;;;;;;;0.20;0.20;;;;;;;8.04;74.66;100005.88;5036230;28;20044;-79
2024/02/25 04:24:56;;;;;;;0.30;0.30;;;;;;;8.08;74.12;100011.03;5035872;28;20551;-79
2024/02/25 04:27:22;;;;;;;0.20;0.20;;;;;;;8.10;74.29;100017.13;5035563;28;20066;-79
2024/02/25 04:29:48;;;;;;;0.10;0.10;;;;;;;8.13;74.49;100016.19;5034464;28;20096;-78
2024/02/25 04:32:15;;;;;;;0.10;0.10;;;;;;;8.09;74.25;100011.91;5033029;28;20116;-78
2024/02/25 04:34:41;;;;;;;0.50;0.50;;;;;;;8.09;74.54;100010.13;5036918;28;20053;-78
2024/02/25 04:37:08;;;;;;;0.15;0.15;;;;;;;8.09;74.49;100011.91;5040101;28;20017;-78
2024/02/25 04:39:35;;;;;;;0.10;0.10;;;;;;;8.13;73.86;100012.72;5038811;28;20145;-77
2024/02/25 04:42:03;;;;;;;0.10;0.10;;;;;;;8.08;74.41;100018.94;5034247;28;20400;-78
2024/02/25 04:44:29;;;;;;;0.20;0.20;;;;;;;8.13;74.40;100018.84;5034255;28;20125;-78
2024/02/25 04:46:55;;;;;;;0.52;0.52;;;;;;;8.10;74.31;100025.06;5034789;28;20504;-79
2024/02/25 04:49:22;;;;;;;0.30;0.30;;;;;;;8.14;73.70;100015.31;5035116;28;20025;-78
2024/02/25 04:51:48;;;;;;;0.32;0.32;;;;;;;8.12;74.25;100021.53;5035387;28;20464;-79
2024/02/25 04:54:15;;;;;;;0.10;0.10;;;;;;;8.06;73.85;100018.13;5035084;28;20022;-78
2024/02/25 04:56:42;;;;;;;0.52;0.52;;;;;;;8.16;73.92;100018.78;5033546;28;20025;-77
2024/02/25 04:59:09;;;;;;;0.15;0.15;;;;;;;8.16;73.79;100020.53;5035279;28;20419;-79
2024/02/25 05:01:42;;;;;;;0.63;0.63;;;;;;;8.14;74.10;100017.94;5036106;28;20429;-79
2024/02/25 05:04:08;;;;;;;0.10;0.10;;;;;;;8.14;73.74;100019.69;5034661;28;20131;-78
2024/02/25 05:06:35;;;;;;;0.28;0.28;;;;;;;8.17;73.82;100020.50;5033239;28;20037;-78
2024/02/25 05:09:03;;;;;;;0.10;0.10;;;;;;;8.16;74.10;100025.81;5033628;28;20028;-78
2024/02/25 05:11:30;;;;;;;0.15;0.15;;;;;;;8.19;73.94;100025.75;5033639;28;20037;-78
2024/02/25 05:13:57;;;;;;;0.28;0.28;;;;;;;8.20;74.06;100019.56;5034279;28;20029;-78
2024/02/25 05:16:23;;;;;;;1.85;1.75;;;;;;;8.15;73.74;100019.69;5033377;28;20124;-78
2024/02/25 05:18:49;;;;;;;0.17;0.17;;;;;;;8.19;73.73;100018.69;5032966;28;20026;-78
2024/02/25 05:21:15;;;;;;;0.10;0.10;;;;;;;8.15;73.84;100017.03;5033061;28;20033;-78
2024/02/25 05:23:42;;;;;;;0.10;0.10;;;;;;;8.15;73.51;100026.72;5034808;28;20030;-78
2024/02/25 05:26:08;;;;;;;0.47;0.47;;;;;;;8.09;74.21;100018.03;5035760;28;20025;-78
2024/02/25 05:28:34;;;;;;;0.20;0.20;;;;;;;8.12;73.70;100016.25;5035962;28;20033;-78
2024/02/25 05:31:00;;;;;;;0.75;0.63;;;;;;;8.15;73.65;100021.44;5035704;28;20507;-78
2024/02/25 05:33:27;;;;;;;0.20;0.20;;;;;;;8.10;74.00;100025.06;5034034;28;20029;-78
2024/02/25 05:35:53;;;;;;;0.20;0.20;;;;;;;8.13;73.81;100024.13;5030034;28;20036;-78
2024/02/25 05:38:20;;;;;;;1.58;1.48;;;;;;;8.16;73.68;100025.81;5036198;28;20087;-78
2024/02/25 05:40:46;;;;;;;0.20;0.20;;;;;;;8.14;74.07;100030.25;5036375;28;20033;-77
2024/02/25 05:43:12;;;;;;;0.10;0.10;;;;;;;8.17;73.65;100032.84;5035846;28;20052;-78
2024/02/25 05:45:39;;;;;;;0.10;0.10;;;;;;;8.23;73.39;100036.19;5035861;28;20029;-78
2024/02/25 05:48:07;;;;;;;0.10;0.10;;;;;;;8.25;73.65;100033.53;5039438;28;20026;-78
2024/02/25 05:50:33;;;;;;;0.45;0.45;;;;;;;8.24;73.85;100039.72;5036827;28;20033;-78
2024/02/25 05:52:59;;;;;;;0.40;0.40;;;;;;;8.24;73.69;100037.94;5036008;28;20057;-77
2024/02/25 05:55:25;;;;;;;0.20;0.20;;;;;;;8.18;73.83;100043.34;5034703;28;20039;-78
2024/02/25 05:57:52;;;;;;;0.20;0.20;;;;;;;8.19;73.88;100044.22;5033924;28;20036;-77
2024/02/25 06:00:18;;;;;;;0.25;0.25;;;;;;;8.23;73.15;100045.88;5035293;28;20542;-78
2024/02/25 06:02:46;;;;;;;0.65;0.65;;;;;;;8.22;73.29;100047.66;5035155;28;20492;-77
2024/02/25 06:05:19;;;;;;;0.65;0.65;;;;;;;8.28;73.22;100053.72;5034271;28;20493;-78
2024/02/25 06:07:46;;;;;;;0.50;0.50;;;;;;;8.25;73.59;100059.94;5035228;28;20026;-78
2024/02/25 06:10:12;;;;;;;1.40;1.30;;;;;;;8.22;73.26;100054.69;5035058;28;20021;-78
2024/02/25 06:12:38;;;;;;;0.20;0.20;;;;;;;8.23;73.17;100052.03;5034987;28;20029;-78
2024/02/25 06:15:11;;;;;;;0.20;0.20;;;;;;;8.24;73.70;100063.47;5036162;28;20052;-78
2024/02/25 06:17:38;;;;;;;0.32;0.32;;;;;;;8.19;73.35;100055.66;5037616;28;20057;-79
2024/02/25 06:20:08;;;;;;;0.73;0.73;;;;;;;8.19;73.16;100062.69;5037596;28;20025;-79
2024/02/25 06:22:40;;;;;;;0.10;0.10;;;;;;;8.16;73.35;100065.41;5038217;28;20029;-79
2024/02/25 06:25:07;;;;;;;0.13;0.13;;;;;;;8.15;73.66;100068.94;5036779;28;20061;-79
2024/02/25 06:27:36;;;;;;;0.45;0.45;;;;;;;8.14;73.27;100072.47;5037005;28;20087;-80
2024/02/25 06:32:40;;;;;;;0.10;0.10;;;;;;;8.20;73.18;100073.22;5106259;27;1239512;-79
2024/02/25 06:35:07;;;;;;;0.10;0.10;;;;;;;8.20;73.54;100072.31;5120785;28;20042;-79
2024/02/25 06:37:33;;;;;;;0.20;0.20;;;;;;;8.16;73.68;100071.56;5122036;27;20024;-79
2024/02/25 06:39:59;;;;;;;0.40;0.40;;;;;;;8.15;73.84;100066.28;5112353;28;20102;-79
2024/02/25 06:42:27;;;;;;;0.10;0.10;;;;;;;8.14;73.63;100073.34;5114294;28;20020;-79
2024/02/25 06:44:53;;;;;;;0.52;0.52;;;;;;;8.16;73.73;100065.41;5132517;27;20031;-79
2024/02/25 06:47:19;;;;;;;0.20;0.20;;;;;;;8.16;73.11;100075.94;5132213;28;20019;-79
2024/02/25 06:49:45;;;;;;;3.55;1.10;;;;;;;8.16;73.62;100068.03;5132705;28;20038;-79
2024/02/25 06:52:11;;;;;;;0.10;0.10;;;;;;;8.05;73.59;100074.44;5132735;28;20023;-79
2024/02/25 06:54:37;;;;;;;0.68;0.68;;;;;;;8.11;73.83;100073.41;5132361;28;20035;-78
2024/02/25 06:57:04;;;;;;;0.90;0.90;;;;;;;8.06;73.68;100075.28;5129985;28;20035;-78
2024/02/25 06:59:30;;;;;;;0.20;0.20;;;;;;;8.11;73.58;100083.97;5130364;27;20077;-77
2024/02/25 07:01:56;;;;;;;0.17;0.17;;;;;;;8.07;73.41;100083.19;5130640;28;20023;-78
2024/02/25 07:04:24;;;;;;;3.00;0.95;;;;;;;8.09;73.71;100089.28;5130732;28;20035;-78
2024/02/25 07:06:50;;;;;;;0.20;0.20;;;;;;;8.07;73.81;100093.75;5129812;27;20047;-78
2024/02/25 07:09:17;;;;;;;0.38;0.38;;;;;;;8.08;73.83;100095.44;5130760;27;20027;-77
2024/02/25 07:11:43;;;;;;;0.20;0.20;;;;;;;8.14;73.51;100105.00;5119044;28;20077;-78
2024/02/25 07:14:10;;;;;;;0.10;0.10;;;;;;;8.12;73.40;100101.53;5111123;28;20032;-78
2024/02/25 07:16:42;;;;;;;0.10;0.10;;;;;;;8.20;73.63;100096.06;5110715;28;20110;-79
2024/02/25 07:19:09;;;;;;;0.20;0.20;;;;;;;8.15;73.75;100106.75;5110520;28;20027;-78
2024/02/25 07:21:35;;;;;;;0.32;0.32;;;;;;;8.17;73.77;100098.81;5105372;28;20608;-78
2024/02/25 07:24:01;;;;;;;0.10;0.10;;;;;;;8.17;73.54;100104.06;5131509;28;20024;-78
2024/02/25 07:26:27;;;;;;;0.10;0.10;;;;;;;8.14;73.63;100098.84;5130633;28;20024;-78
2024/02/25 07:28:54;;;;;;;0.20;0.20;;;;;;;8.21;73.52;100097.81;5116492;28;20036;-78
2024/02/25 07:31:20;;;;;;;0.17;0.17;;;;;;;8.23;73.37;100103.94;5111574;28;20031;-78
2024/02/25 07:33:49;;;;;;;0.30;0.30;;;;;;;8.31;73.63;100098.47;5124942;28;20032;-79
2024/02/25 07:36:16;;;;;;;0.65;0.65;;;;;;;8.31;73.71;100103.75;5110656;28;20114;-77
2024/02/25 07:38:43;;;;;;;0.15;0.15;;;;;;;8.34;73.47;100096.66;5111008;28;20035;-77
2024/02/25 07:41:10;;;;;;;0.93;0.93;;;;;;;8.36;73.43;100102.78;5100984;28;20032;-79
2024/02/25 07:43:38;;;;;;;0.10;0.10;;;;;;;8.36;73.20;100104.53;5091311;28;20028;-78
2024/02/25 07:46:05;;;;;;;0.68;0.68;;;;;;;8.41;73.21;100106.16;5096341;28;20483;-78
2024/02/25 07:48:32;;;;;;;0.47;0.47;;;;;;;8.42;73.22;100107.91;5097496;28;20499;-79
2024/02/25 07:50:59;;;;;;;0.85;0.85;;;;;;;8.48;73.31;100106.06;5097986;28;20031;-78
2024/02/25 07:53:26;;;;;;;0.20;0.20;;;;;;;8.54;72.97;100112.06;5091228;28;20645;-78
2024/02/25 07:55:52;;;;;;;0.20;0.20;;;;;;;8.59;73.37;100117.25;5111684;28;20091;-78
2024/02/25 07:58:18;;;;;;;0.30;0.30;;;;;;;8.61;73.00;100112.81;5104126;28;20024;-78
2024/02/25 08:00:44;;;;;;;0.20;0.20;;;;;;;8.64;73.20;100117.13;5106132;28;20028;-78
2024/02/25 08:03:11;;;;;;;0.20;0.20;;;;;;;8.67;73.33;100122.34;5107375;28;20096;-78
2024/02/25 08:05:37;;;;;;;0.10;0.10;;;;;;;8.67;73.22;100119.69;5116509;28;20038;-78
2024/02/25 08:08:04;;;;;;;0.10;0.10;;;;;;;8.66;73.06;100110.03;5120812;28;20024;-78
2024/02/25 08:10:30;;;;;;;2.25;0.73;;;;;;;8.71;73.24;100124.88;5107679;28;20091;-78
2024/02/25 08:12:59;;;;;;;0.20;0.20;;;;;;;8.71;73.06;100122.22;5108145;28;20028;-78
2024/02/25 08:15:25;;;;;;;1.00;0.95;;;;;;;8.74;73.01;100129.22;5104596;28;20119;-78
2024/02/25 08:17:51;;;;;;;0.10;0.10;;;;;;;8.73;73.06;100127.47;5099794;28;20463;-78
2024/02/25 08:20:17;;;;;;;0.10;0.10;;;;;;;8.69;72.82;100131.94;5095124;28;20032;-79
2024/02/25 08:22:43;;;;;;;1.33;0.95;;;;;;;8.71;72.88;100135.44;5097336;28;20448;-79
2024/02/25 08:25:09;;;;;;;0.85;0.85;;;;;;;8.71;72.75;100129.25;5088993;28;20510;-79
2024/02/25 08:27:37;;;;;;;0.30;0.30;;;;;;;8.82;72.66;100139.59;5094953;28;20024;-79
2024/02/25 08:30:04;;;;;;;0.30;0.30;;;;;;;8.88;72.94;100139.44;5086598;28;20564;-78
2024/02/25 08:32:30;;;;;;;0.10;0.10;;;;;;;8.86;72.64;100133.31;5087901;28;20036;-78
2024/02/25 08:34:56;;;;;;;0.40;0.40;;;;;;;8.86;72.78;100133.31;5088181;28;20024;-78
2024/02/25 08:37:25;;;;;;;1.30;1.15;;;;;;;8.95;73.12;100138.38;5087368;28;20028;-78
2024/02/25 08:39:51;;;;;;;0.22;0.22;;;;;;;9.02;72.70;100134.69;5091289;28;20028;-78
2024/02/25 08:42:18;;;;;;;1.65;1.55;;;;;;;9.07;72.63;100139.84;5088500;28;20028;-79
2024/02/25 08:44:45;;;;;;;0.20;0.20;;;;;;;9.13;72.52;100138.84;5093249;28;20032;-79
2024/02/25 08:47:12;;;;;;;0.60;0.60;;;;;;;9.17;72.33;100136.09;5094679;28;20066;-78
2024/02/25 08:49:38;;;;;;;1.75;1.10;;;;;;;9.25;72.57;100145.59;5086127;28;20052;-79
2024/02/25 08:52:05;;;;;;;0.13;0.13;;;;;;;9.27;72.66;100141.13;5085397;28;20068;-79
2024/02/25 08:54:33;;;;;;;0.10;0.10;;;;;;;9.30;72.38;100133.97;5087038;28;20032;-79
2024/02/25 08:56:59;;;;;;;0.20;0.20;;;;;;;9.22;71.88;100144.75;5097904;28;20020;-80
2024/02/25 08:59:26;;;;;;;1.35;1.25;;;;;;;9.33;71.66;100135.66;5092023;28;20407;-80
2024/02/25 09:01:53;;;;;;;0.10;0.10;;;;;;;9.27;71.73;100142.00;5119352;28;20497;-80
2024/02/25 09:04:19;;;;;;;0.20;0.20;;;;;;;9.36;71.36;100136.47;5125878;28;20027;-79
2024/02/25 09:06:45;;;;;;;1.00;0.57;;;;;;;9.41;71.63;100136.34;5125899;28;20031;-80
2024/02/25 09:09:12;;;;;;;0.10;0.10;;;;;;;9.37;71.13;100138.19;5118568;28;20035;-79
2024/02/25 09:11:39;;;;;;;0.10;0.10;;;;;;;9.49;71.71;100131.69;5117242;27;20046;-79
2024/02/25 09:14:06;;;;;;;0.13;0.13;;;;;;;9.48;71.26;100130.00;5114163;28;20080;-79
2024/02/25 09:16:32;;;;;;;0.13;0.13;;;;;;;9.47;71.03;100137.94;5113477;28;20063;-79
2024/02/25 09:18:58;;;;;;;1.08;1.08;;;;;;;9.41;71.22;100138.09;5117330;28;20027;-79
2024/02/25 09:21:24;;;;;;;1.00;1.00;;;;;;;9.48;70.71;100137.03;5118333;28;20093;-79
2024/02/25 09:23:50;;;;;;;0.63;0.63;;;;;;;9.43;70.54;100129.22;5117836;28;20051;-80
2024/02/25 09:26:17;;;;;;;1.00;1.00;;;;;;;9.48;71.16;100129.09;5116654;28;20035;-79
2024/02/25 09:28:43;;;;;;;0.30;0.30;;;;;;;9.44;70.63;100130.09;5117607;28;20161;-79
2024/02/25 09:31:12;;;;;;;0.75;0.75;;;;;;;9.41;70.69;100124.88;5099850;28;20123;-79
2024/02/25 09:33:38;;;;;;;0.88;0.65;;;;;;;9.36;70.61;100132.97;5096445;28;20499;-79
2024/02/25 09:36:04;;;;;;;0.10;0.10;;;;;;;9.27;70.67;100131.44;5086453;28;20040;-79
2024/02/25 09:38:31;;;;;;;0.45;0.45;;;;;;;9.23;70.86;100140.31;5112081;28;20030;-79
2024/02/25 09:41:02;;;;;;;0.45;0.45;;;;;;;9.25;70.84;100143.81;5107086;28;20024;-79
2024/02/25 09:43:28;;;;;;;0.30;0.30;;;;;;;9.34;70.59;100132.13;5092377;28;20100;-78
2024/02/25 09:45:57;;;;;;;0.47;0.47;;;;;;;9.34;70.94;100132.97;5092682;28;20059;-78
2024/02/25 09:48:24;;;;;;;1.10;1.02;;;;;;;9.44;70.38;100130.09;5093975;28;20070;-79
2024/02/25 09:50:52;;;;;;;0.10;0.10;;;;;;;9.38;69.51;100137.31;5093631;28;20119;-79
2024/02/25 09:53:23;;;;;;;0.20;0.20;;;;;;;9.55;69.88;100136.81;5094006;28;20455;-78
2024/02/25 09:55:50;;;;;;;0.10;0.10;;;;;;;9.61;69.75;100140.22;5088678;28;20052;-79
2024/02/25 09:58:16;;;;;;;0.20;0.20;;;;;;;9.65;69.33;100139.25;5109958;28;20118;-78
2024/02/25 10:00:44;;;;;;;0.25;0.25;;;;;;;9.68;68.56;100129.44;5103010;28;20372;-79
2024/02/25 10:03:13;;;;;;;0.40;0.40;;;;;;;9.64;68.21;100133.06;5093679;28;20023;-79
2024/02/25 10:05:41;;;;;;;0.10;0.10;;;;;;;9.57;67.31;100131.53;5092162;28;20020;-79
2024/02/25 10:08:11;;;;;;;1.20;1.20;;;;;;;9.55;66.90;100130.69;5092936;28;20032;-79
2024/02/25 10:10:40;;;;;;;0.22;0.22;;;;;;;9.53;66.90;100133.38;5114002;28;20106;-78
2024/02/25 10:13:06;;;;;;;0.30;0.30;;;;;;;9.68;67.39;100132.09;5106717;28;20491;-79
2024/02/25 10:15:33;;;;;;;0.28;0.28;;;;;;;9.72;67.35;100135.53;5094720;28;20040;-79
2024/02/25 10:17:59;;;;;;;0.20;0.20;;;;;;;9.93;67.67;100130.50;5095573;28;20067;-80
2024/02/25 10:20:26;;;;;;;0.25;0.25;;;;;;;10.05;67.37;100124.88;5090335;28;20091;-79
2024/02/25 10:23:09;;;;;;;0.20;0.20;;;;;;;10.24;67.30;100132.25;5116493;28;20055;-79
2024/02/25 10:25:37;;;;;;;0.10;0.10;;;;;;;10.16;66.41;100128.06;5098283;28;20024;-79
2024/02/25 10:28:21;;;;;;;4.03;1.58;;;;;;;10.29;65.32;100138.28;5097966;28;20036;-79
2024/02/25 10:31:04;;;;;;;0.10;0.10;;;;;;;10.17;64.99;100136.88;5095560;28;20035;-80
2024/02/25 10:33:31;;;;;;;0.63;0.63;;;;;;;10.09;65.05;100138.88;5096125;28;20480;-80
2024/02/25 10:36:08;;;;;;;1.20;0.63;;;;;;;10.15;65.48;100136.06;5088650;28;20028;-80
2024/02/25 10:38:37;;;;;;;0.40;0.40;;;;;;;10.04;65.02;100144.31;5115640;28;20031;-80
2024/02/25 10:41:06;;;;;;;0.30;0.30;;;;;;;10.25;65.39;100137.50;5118878;28;20050;-80
2024/02/25 10:43:34;;;;;;;0.93;0.93;;;;;;;10.40;64.96;100146.78;5117517;28;20047;-79
2024/02/25 10:46:12;;;;;;;0.20;0.20;;;;;;;10.56;65.26;100152.50;5118281;28;20561;-79
2024/02/25 10:48:39;;;;;;;0.22;0.22;;;;;;;10.59;64.64;100135.63;5118822;28;20035;-80
2024/02/25 10:51:05;;;;;;;0.35;0.35;;;;;;;10.66;62.89;100148.63;5118698;28;20057;-79
2024/02/25 10:53:33;;;;;;;0.73;0.73;;;;;;;10.88;63.86;100147.09;5119449;28;20402;-80
2024/02/25 10:56:00;;;;;;;0.20;0.20;;;;;;;10.98;62.18;100148.53;5117928;28;20027;-79
2024/02/25 10:58:28;;;;;;;0.13;0.13;;;;;;;11.14;61.28;100143.56;5118982;28;20027;-79
2024/02/25 11:00:57;;;;;;;0.20;0.20;;;;;;;11.28;60.96;100154.59;5120432;28;20027;-79
2024/02/25 11:03:24;;;;;;;0.35;0.35;;;;;;;11.42;59.91;100151.44;5126512;28;20406;-78
2024/02/25 11:05:52;;;;;;;0.25;0.25;;;;;;;11.47;59.09;100140.69;5119995;28;20073;-79
2024/02/25 11:08:28;;;;;;;0.65;0.65;;;;;;;11.56;58.53;100144.81;5119329;28;20028;-79
2024/02/25 11:10:57;;;;;;;0.10;0.10;;;;;;;11.55;59.75;100137.75;5120008;28;20526;-79
2024/02/25 11:13:24;;;;;;;0.45;0.45;;;;;;;11.58;59.74;100146.47;5118939;28;20095;-79
2024/02/25 11:15:50;;;;;;;0.52;0.52;;;;;;;11.52;57.85;100148.50;5113871;28;20043;-79
2024/02/25 11:18:26;;;;;;;0.20;0.20;;;;;;;11.60;58.02;100144.66;5100599;28;20024;-79
2024/02/25 11:21:17;;;;;;;1.02;0.47;;;;;;;11.63;57.53;100147.19;5102480;28;20047;-79
2024/02/25 11:23:46;;;;;;;0.20;0.20;;;;;;;11.49;58.48;100144.16;5095680;28;20289;-79
2024/02/25 11:29:26;;;;;;;0.13;0.13;;;;;;;11.56;58.86;100139.50;5092296;28;20666;-78
2024/02/25 11:31:58;;;;;;;1.77;1.20;;;;;;;11.45;58.49;100132.78;5090076;28;20032;-78
2024/02/25 11:34:27;;;;;;;0.10;0.10;;;;;;;11.42;59.23;100138.19;5088949;28;20414;-78
2024/02/25 11:36:56;;;;;;;0.10;0.10;;;;;;;11.38;59.21;100136.56;5084331;28;20535;-78
2024/02/25 11:39:26;;;;;;;0.10;0.10;;;;;;;11.37;59.11;100140.13;5091851;28;20082;-78